Time;durP1;ratioP1;P1;durP2;ratioP2;P2;SDS_P1;SDS_P2;PMS_P1;PMS_P2;Temp;Humidity;BMP_temperature;BMP_pressure;BME280_temperature;BME280_humidity;BME280_pressure;Samples;Min_cycle;Max_cycle;Signal;HPM_P1;HPM_P2
2021/12/26 00:00:30;;;;;;;5.60;2.05;;;2.90;97.20;;;;;;4980248;28;20026;-67
2021/12/26 00:02:57;;;;;;;2.72;2.08;;;2.80;97.40;;;;;;4979554;28;20034;-67
2021/12/26 00:05:23;;;;;;;2.67;2.00;;;2.80;97.50;;;;;;4980576;28;20034;-67
2021/12/26 00:07:50;;;;;;;3.33;2.38;;;2.80;97.50;;;;;;4981012;28;20030;-67
2021/12/26 00:10:20;;;;;;;2.72;2.33;;;2.80;97.60;;;;;;4977481;28;20121;-67
2021/12/26 00:12:46;;;;;;;3.30;2.13;;;2.80;97.60;;;;;;4976974;28;20506;-68
2021/12/26 00:15:12;;;;;;;2.53;2.10;;;2.70;97.60;;;;;;4980892;28;20400;-68
2021/12/26 00:17:38;;;;;;;4.63;2.20;;;2.80;97.40;;;;;;4979194;28;20030;-67
2021/12/26 00:20:07;;;;;;;4.18;2.30;;;2.80;97.50;;;;;;4980543;28;20373;-66
2021/12/26 00:22:33;;;;;;;2.60;1.85;;;2.70;97.60;;;;;;4980885;28;20042;-67
2021/12/26 00:24:59;;;;;;;2.95;2.25;;;2.70;97.70;;;;;;4979453;28;20683;-68
2021/12/26 00:27:25;;;;;;;2.58;1.92;;;2.70;97.60;;;;;;4980599;28;20050;-68
2021/12/26 00:29:51;;;;;;;3.38;2.00;;;2.60;97.50;;;;;;4981523;28;20205;-67
2021/12/26 00:32:17;;;;;;;2.85;1.77;;;2.60;97.50;;;;;;4974990;28;20046;-67
2021/12/26 00:34:45;;;;;;;2.65;1.63;;;2.60;97.50;;;;;;4979149;28;20049;-68
2021/12/26 00:37:11;;;;;;;2.88;1.80;;;2.50;97.30;;;;;;4976879;28;20029;-67
2021/12/26 00:39:37;;;;;;;2.45;1.90;;;2.50;97.50;;;;;;4979848;28;20062;-67
2021/12/26 00:42:04;;;;;;;2.08;1.60;;;2.50;97.60;;;;;;4978799;28;20022;-67
2021/12/26 00:44:29;;;;;;;2.00;1.67;;;2.50;97.50;;;;;;4981984;28;20038;-67
2021/12/26 00:46:55;;;;;;;3.60;2.08;;;2.60;97.50;;;;;;4981274;28;20050;-67
2021/12/26 00:49:22;;;;;;;2.42;1.83;;;2.60;97.30;;;;;;4981556;28;20062;-67
2021/12/26 00:51:49;;;;;;;72.25;55.75;;;2.50;97.30;;;;;;4982496;28;20631;-67
2021/12/26 00:54:20;;;;;;;8.82;8.18;;;2.50;97.30;;;;;;4982197;28;20440;-67
2021/12/26 00:56:46;;;;;;;3.55;2.90;;;2.50;97.10;;;;;;4981225;28;20030;-67
2021/12/26 00:59:11;;;;;;;2.58;2.08;;;2.40;97.10;;;;;;4981949;28;20066;-67
2021/12/26 01:01:37;;;;;;;2.20;2.00;;;2.50;97.10;;;;;;4984916;28;20031;-67
2021/12/26 01:04:03;;;;;;;4.70;4.10;;;2.40;97.00;;;;;;4983559;28;20049;-67
2021/12/26 01:06:29;;;;;;;2.35;2.13;;;2.40;97.20;;;;;;4981414;28;20878;-67
2021/12/26 01:08:55;;;;;;;3.10;2.00;;;2.30;97.40;;;;;;4978618;28;20037;-66
2021/12/26 01:11:40;;;;;;;3.00;2.67;;;2.30;97.50;;;;;;4982984;28;20066;-67
2021/12/26 01:14:11;;;;;;;2.88;2.30;;;2.30;97.10;;;;;;4981176;28;20031;-67
2021/12/26 01:16:38;;;;;;;2.47;2.10;;;2.30;97.20;;;;;;4981049;28;20038;-67
2021/12/26 01:19:10;;;;;;;3.78;2.33;;;2.30;97.20;;;;;;4977638;28;20030;-67
2021/12/26 01:21:36;;;;;;;2.95;2.10;;;2.30;97.10;;;;;;4981605;28;20042;-67
2021/12/26 01:24:05;;;;;;;2.70;2.20;;;2.20;96.90;;;;;;4978257;28;20561;-67
2021/12/26 01:26:31;;;;;;;3.28;2.60;;;2.10;97.10;;;;;;4980570;28;20038;-67
2021/12/26 01:28:57;;;;;;;3.08;1.80;;;2.20;97.40;;;;;;4980154;28;20046;-67
2021/12/26 01:31:29;;;;;;;5.10;3.65;;;2.10;97.30;;;;;;4978052;28;20453;-68
2021/12/26 01:33:58;;;;;;;6.07;5.47;;;2.20;97.20;;;;;;4984816;28;20662;-68
2021/12/26 01:36:28;;;;;;;4.20;3.35;;;2.20;96.80;;;;;;4983567;28;20489;-68
2021/12/26 01:38:56;;;;;;;9.88;7.20;;;2.10;96.90;;;;;;4980536;28;20030;-68
2021/12/26 01:41:22;;;;;;;23.17;18.30;;;2.00;96.80;;;;;;5011259;28;20038;-68
2021/12/26 01:43:52;;;;;;;32.08;20.90;;;2.00;96.90;;;;;;4983988;28;20037;-68
2021/12/26 01:46:18;;;;;;;10.48;7.18;;;2.00;96.90;;;;;;4982957;28;20043;-68
2021/12/26 01:48:44;;;;;;;5.13;3.20;;;1.90;96.80;;;;;;4984230;28;20104;-68
2021/12/26 01:51:10;;;;;;;35.50;21.77;;;1.90;96.70;;;;;;4979065;28;20030;-68
2021/12/26 01:53:38;;;;;;;35.22;21.00;;;1.90;96.60;;;;;;4982326;28;20772;-68
2021/12/26 01:56:13;;;;;;;5.57;4.07;;;1.90;96.80;;;;;;4979219;28;20033;-67
2021/12/26 01:58:40;;;;;;;66.82;41.63;;;1.90;96.90;;;;;;4978633;28;20038;-68
2021/12/26 02:01:11;;;;;;;6.30;5.00;;;1.90;96.70;;;;;;4980106;28;20062;-68
2021/12/26 02:03:39;;;;;;;7.75;5.30;;;1.90;96.80;;;;;;4984762;28;20620;-67
2021/12/26 02:06:06;;;;;;;10.98;7.35;;;1.90;96.70;;;;;;4982685;28;20045;-68
2021/12/26 02:08:32;;;;;;;14.27;9.10;;;2.00;96.70;;;;;;4978646;28;20030;-67
2021/12/26 02:11:02;;;;;;;14.45;8.35;;;2.00;96.60;;;;;;4983677;28;20061;-67
2021/12/26 02:13:33;;;;;;;8.10;5.38;;;1.90;96.50;;;;;;4980615;28;20109;-68
2021/12/26 02:15:59;;;;;;;13.18;7.82;;;1.90;96.30;;;;;;4982458;28;20030;-68
2021/12/26 02:18:25;;;;;;;7.05;4.82;;;2.00;96.20;;;;;;4985576;28;20041;-68
2021/12/26 02:23:59;;;;;;;4.47;3.53;;;2.00;96.20;;;;;;4976426;28;20046;-68
2021/12/26 02:29:09;;;;;;;5.53;4.10;;;2.00;96.20;;;;;;4983746;28;20388;-68
2021/12/26 02:31:35;;;;;;;4.25;3.38;;;2.00;95.90;;;;;;4982950;28;20034;-68
2021/12/26 02:34:00;;;;;;;2.03;1.73;;;2.00;95.80;;;;;;4979031;28;20029;-68
2021/12/26 02:36:26;;;;;;;2.60;1.90;;;2.00;95.90;;;;;;4981406;28;20030;-67
2021/12/26 02:38:53;;;;;;;1.95;1.70;;;2.00;95.70;;;;;;4983728;28;20065;-67
2021/12/26 02:41:19;;;;;;;2.42;1.67;;;1.90;95.90;;;;;;4982086;28;20038;-68
2021/12/26 02:43:45;;;;;;;2.63;1.58;;;1.90;95.60;;;;;;4980947;28;20078;-68
2021/12/26 02:46:10;;;;;;;2.25;1.40;;;1.80;95.70;;;;;;4983622;28;20049;-67
2021/12/26 02:48:37;;;;;;;2.45;1.42;;;1.80;95.60;;;;;;4985988;28;20055;-67
2021/12/26 02:51:04;;;;;;;2.05;1.30;;;1.70;95.90;;;;;;4982410;28;20432;-67
2021/12/26 02:53:30;;;;;;;3.47;1.58;;;1.70;96.00;;;;;;4982834;28;20038;-68
2021/12/26 02:55:58;;;;;;;4.00;1.67;;;1.70;95.80;;;;;;4981855;28;20031;-67
2021/12/26 02:58:24;;;;;;;1.75;1.40;;;1.80;95.70;;;;;;4984214;28;20042;-67
2021/12/26 03:01:16;;;;;;;2.05;1.60;;;1.80;95.60;;;;;;4975847;28;20027;-67
2021/12/26 03:03:41;;;;;;;2.13;1.15;;;1.80;95.70;;;;;;4977711;28;20118;-67
2021/12/26 03:06:38;;;;;;;2.30;1.45;;;1.80;95.70;;;;;;4978092;28;20034;-67
2021/12/26 03:08:56;;;;;;;2.53;1.65;;;1.80;95.80;;;;;;4977778;28;20487;-67
2021/12/26 03:11:22;;;;;;;3.17;1.63;;;1.90;95.60;;;;;;4976774;28;20058;-67
2021/12/26 03:13:48;;;;;;;3.30;1.90;;;1.90;95.50;;;;;;4977187;28;20034;-67
2021/12/26 03:16:14;;;;;;;2.75;1.73;;;1.80;95.50;;;;;;4977849;28;20022;-67
2021/12/26 03:18:40;;;;;;;3.08;1.92;;;1.90;95.40;;;;;;4977833;28;20039;-67
2021/12/26 03:21:06;;;;;;;3.40;2.63;;;1.90;95.20;;;;;;4979763;28;20058;-67
2021/12/26 03:23:32;;;;;;;2.83;1.40;;;1.80;94.80;;;;;;4977990;28;21164;-67
2021/12/26 03:26:01;;;;;;;1.85;1.50;;;1.90;95.10;;;;;;4974597;28;20197;-67
2021/12/26 03:28:28;;;;;;;1.88;1.63;;;1.80;95.20;;;;;;4978572;28;20038;-67
2021/12/26 03:30:54;;;;;;;2.63;1.67;;;1.80;95.00;;;;;;4978389;28;20030;-67
2021/12/26 03:33:21;;;;;;;3.05;1.77;;;1.70;94.60;;;;;;4980551;28;20030;-67
2021/12/26 03:35:47;;;;;;;3.20;1.80;;;1.70;94.60;;;;;;4974732;28;20077;-68
2021/12/26 03:38:14;;;;;;;3.03;1.55;;;1.70;94.50;;;;;;4980067;28;20683;-68
2021/12/26 03:40:41;;;;;;;2.80;1.67;;;1.70;94.30;;;;;;4977538;28;20023;-67
2021/12/26 03:43:07;;;;;;;2.05;1.30;;;1.70;94.60;;;;;;4977415;28;20030;-68
2021/12/26 03:45:33;;;;;;;4.25;3.35;;;1.70;94.70;;;;;;4975063;28;20040;-68
2021/12/26 03:47:59;;;;;;;9.02;6.43;;;1.70;94.30;;;;;;4976772;28;20055;-68
2021/12/26 03:50:28;;;;;;;7.82;6.43;;;1.70;93.70;;;;;;4978568;28;20027;-67
2021/12/26 03:52:57;;;;;;;3.10;2.72;;;1.70;93.70;;;;;;4978402;28;20548;-68
2021/12/26 03:55:24;;;;;;;4.20;3.40;;;1.70;94.00;;;;;;4981019;28;20040;-68
2021/12/26 03:57:50;;;;;;;4.95;3.95;;;1.70;93.60;;;;;;4979478;28;20022;-68
2021/12/26 04:00:16;;;;;;;4.60;3.88;;;1.60;93.50;;;;;;4977280;28;20033;-67
2021/12/26 04:02:43;;;;;;;2.50;2.30;;;1.60;93.30;;;;;;4975629;28;20038;-67
2021/12/26 04:05:10;;;;;;;2.85;1.83;;;1.50;93.90;;;;;;4975587;28;20031;-67
2021/12/26 04:07:36;;;;;;;2.35;1.52;;;1.50;93.80;;;;;;4975943;28;20096;-67
2021/12/26 04:10:02;;;;;;;3.70;3.15;;;1.60;93.60;;;;;;4981835;28;20030;-67
2021/12/26 04:12:34;;;;;;;4.70;3.88;;;1.60;93.60;;;;;;4980491;28;20558;-67
2021/12/26 04:15:01;;;;;;;3.30;1.90;;;1.60;93.60;;;;;;4981211;28;20030;-68
2021/12/26 04:17:27;;;;;;;2.33;1.55;;;1.60;93.80;;;;;;4981139;28;20046;-68
2021/12/26 04:19:52;;;;;;;20.63;10.93;;;1.60;93.70;;;;;;4980545;28;20088;-67
2021/12/26 04:22:18;;;;;;;18.25;10.02;;;1.70;94.00;;;;;;4981321;28;20045;-67
2021/12/26 04:24:44;;;;;;;26.70;18.52;;;1.60;93.60;;;;;;4978144;28;20112;-68
2021/12/26 04:27:09;;;;;;;19.63;12.68;;;1.60;93.60;;;;;;4984044;28;20036;-68
2021/12/26 04:29:35;;;;;;;3.63;2.50;;;1.60;93.40;;;;;;4983141;28;20735;-68
2021/12/26 04:32:00;;;;;;;6.57;4.43;;;1.60;93.60;;;;;;4979069;28;20042;-67
2021/12/26 04:34:26;;;;;;;2.55;1.80;;;1.60;93.50;;;;;;4980704;28;20037;-67
2021/12/26 04:36:52;;;;;;;4.00;2.60;;;1.60;92.70;;;;;;4981902;28;20040;-68
2021/12/26 04:39:17;;;;;;;3.20;2.20;;;1.50;92.60;;;;;;4981665;28;20306;-68
2021/12/26 04:41:45;;;;;;;4.70;2.00;;;1.60;92.70;;;;;;4979249;28;20034;-67
2021/12/26 04:44:11;;;;;;;1.63;1.08;;;1.60;92.50;;;;;;4983487;28;20041;-67
2021/12/26 04:46:37;;;;;;;3.58;1.83;;;1.60;92.60;;;;;;4980844;28;20031;-67
2021/12/26 04:49:04;;;;;;;3.42;2.05;;;1.60;92.80;;;;;;4984146;28;20073;-68
2021/12/26 04:51:29;;;;;;;5.65;4.10;;;1.60;92.20;;;;;;4981400;28;20030;-67
2021/12/26 04:53:55;;;;;;;3.80;2.78;;;1.60;91.90;;;;;;4981126;28;20085;-67
2021/12/26 04:56:21;;;;;;;2.97;1.50;;;1.50;91.50;;;;;;4978802;28;20045;-68
2021/12/26 04:58:47;;;;;;;2.22;1.42;;;1.50;92.20;;;;;;4979679;28;20134;-68
2021/12/26 05:01:12;;;;;;;2.33;1.13;;;1.60;93.10;;;;;;4978784;28;20049;-68
2021/12/26 05:03:39;;;;;;;2.72;1.30;;;1.60;93.20;;;;;;4978027;28;20596;-68
2021/12/26 05:06:05;;;;;;;3.17;1.10;;;1.60;93.20;;;;;;4977930;28;20019;-67
2021/12/26 05:08:31;;;;;;;4.68;3.83;;;1.60;93.20;;;;;;4982888;28;20401;-68
2021/12/26 05:10:56;;;;;;;3.78;2.97;;;1.60;92.90;;;;;;4977272;28;20042;-68
2021/12/26 05:13:22;;;;;;;2.58;1.40;;;1.60;92.70;;;;;;4981911;28;20039;-68
2021/12/26 05:15:48;;;;;;;5.82;3.92;;;1.50;92.50;;;;;;4978144;28;20035;-68
2021/12/26 05:18:14;;;;;;;4.85;3.53;;;1.50;92.60;;;;;;4984089;28;20038;-67
2021/12/26 05:20:39;;;;;;;4.05;2.63;;;1.40;92.30;;;;;;4979211;28;20027;-67
2021/12/26 05:23:05;;;;;;;5.82;4.25;;;1.40;92.40;;;;;;4982493;28;20377;-68
2021/12/26 05:25:31;;;;;;;8.45;4.85;;;1.40;92.40;;;;;;4978491;28;20038;-67
2021/12/26 05:27:57;;;;;;;12.27;8.07;;;1.30;92.20;;;;;;4982323;28;20042;-67
2021/12/26 05:30:25;;;;;;;43.78;25.92;;;1.30;91.90;;;;;;4981104;28;20042;-67
2021/12/26 05:32:50;;;;;;;28.42;17.05;;;1.30;92.20;;;;;;4981430;28;20235;-67
2021/12/26 05:35:17;;;;;;;9.07;4.97;;;1.30;92.40;;;;;;4983815;28;20099;-67
2021/12/26 05:37:43;;;;;;;8.27;5.32;;;1.40;92.10;;;;;;4987312;28;20043;-68
2021/12/26 05:40:10;;;;;;;14.43;10.13;;;1.30;91.60;;;;;;4984794;28;20160;-68
2021/12/26 05:42:37;;;;;;;5.45;3.80;;;1.30;91.70;;;;;;4987403;28;20077;-68
2021/12/26 05:45:03;;;;;;;24.20;16.75;;;1.30;91.60;;;;;;4981844;28;20066;-67
2021/12/26 05:47:29;;;;;;;4.95;3.42;;;1.30;91.40;;;;;;4986332;28;20026;-68
2021/12/26 05:49:55;;;;;;;8.77;6.10;;;1.30;90.80;;;;;;4981913;28;20092;-68
2021/12/26 05:52:21;;;;;;;5.68;3.28;;;1.20;91.00;;;;;;4983136;28;20551;-67
2021/12/26 05:54:47;;;;;;;6.53;3.83;;;1.20;90.60;;;;;;4980373;28;20451;-67
2021/12/26 05:57:13;;;;;;;3.75;2.70;;;1.10;90.20;;;;;;4982801;28;20026;-68
2021/12/26 05:59:38;;;;;;;4.25;1.83;;;1.10;90.70;;;;;;4983820;28;20031;-68
2021/12/26 06:02:04;;;;;;;2.45;1.30;;;1.10;90.80;;;;;;4981218;28;20112;-68
2021/12/26 06:04:30;;;;;;;2.42;1.50;;;1.10;90.40;;;;;;4985925;28;20038;-68
2021/12/26 06:06:56;;;;;;;1.92;0.93;;;1.00;90.10;;;;;;4982879;28;20030;-68
2021/12/26 06:09:22;;;;;;;5.00;3.10;;;1.10;91.20;;;;;;4984097;28;20026;-68
2021/12/26 06:11:47;;;;;;;2.65;1.50;;;1.10;91.60;;;;;;4984177;28;20056;-67
2021/12/26 06:14:13;;;;;;;21.50;13.73;;;1.10;91.60;;;;;;4986076;28;20524;-67
2021/12/26 06:16:42;;;;;;;5.88;4.50;;;1.10;90.80;;;;;;4975183;28;21460;-67
2021/12/26 06:19:08;;;;;;;3.70;1.70;;;1.00;90.70;;;;;;4974545;28;20045;-67
2021/12/26 06:21:33;;;;;;;5.30;3.30;;;1.00;90.80;;;;;;4976579;28;20034;-67
2021/12/26 06:23:59;;;;;;;2.28;1.70;;;1.00;91.00;;;;;;4976088;28;20604;-67
2021/12/26 06:26:27;;;;;;;2.60;1.40;;;1.00;91.00;;;;;;4982946;28;20031;-67
2021/12/26 06:28:53;;;;;;;3.40;1.55;;;1.10;92.00;;;;;;4982376;28;20033;-67
2021/12/26 06:31:19;;;;;;;3.58;1.30;;;1.10;91.70;;;;;;4983532;28;20031;-67
2021/12/26 06:33:46;;;;;;;2.47;1.48;;;1.10;91.90;;;;;;4982410;28;20027;-67
2021/12/26 06:36:16;;;;;;;2.75;1.45;;;1.10;92.00;;;;;;4979786;28;20533;-67
2021/12/26 06:38:43;;;;;;;3.47;3.03;;;1.10;92.40;;;;;;4983637;28;20039;-67
2021/12/26 06:41:09;;;;;;;3.28;1.92;;;1.00;91.40;;;;;;4982034;28;20124;-68
2021/12/26 06:43:37;;;;;;;2.42;1.75;;;1.00;91.10;;;;;;4981207;28;20030;-67
2021/12/26 06:46:04;;;;;;;3.95;2.00;;;0.90;91.30;;;;;;4984885;28;20026;-67
2021/12/26 06:48:32;;;;;;;4.05;2.45;;;0.90;90.20;;;;;;4983220;28;20050;-67
2021/12/26 06:50:57;;;;;;;2.45;1.73;;;0.90;89.30;;;;;;4980389;28;20038;-67
2021/12/26 06:53:23;;;;;;;3.97;1.73;;;0.90;90.30;;;;;;4982137;28;20054;-67
2021/12/26 06:55:49;;;;;;;3.20;1.63;;;0.90;91.20;;;;;;4980227;28;20109;-67
2021/12/26 06:58:16;;;;;;;2.55;1.38;;;0.90;91.00;;;;;;4979608;28;20039;-67
2021/12/26 07:00:43;;;;;;;2.50;1.40;;;1.00;91.60;;;;;;4982016;28;20022;-67
2021/12/26 07:03:09;;;;;;;3.30;1.70;;;0.90;91.30;;;;;;4982374;28;20030;-67
2021/12/26 07:05:35;;;;;;;2.20;1.20;;;0.90;91.30;;;;;;4980913;28;20084;-67
2021/12/26 07:08:01;;;;;;;2.63;1.63;;;0.90;91.20;;;;;;4978182;28;20035;-67
2021/12/26 07:10:27;;;;;;;5.93;1.60;;;1.00;90.80;;;;;;4983387;28;20030;-67
2021/12/26 07:12:53;;;;;;;3.03;1.88;;;1.00;90.50;;;;;;4985624;28;20041;-67
2021/12/26 07:15:19;;;;;;;3.28;2.08;;;1.00;89.80;;;;;;4980359;28;20022;-68
2021/12/26 07:17:45;;;;;;;2.20;1.40;;;1.10;91.00;;;;;;4977408;28;20037;-67
2021/12/26 07:20:12;;;;;;;5.10;2.38;;;1.10;91.00;;;;;;4984311;28;21018;-67
2021/12/26 07:22:38;;;;;;;4.68;3.00;;;1.20;90.60;;;;;;4980287;28;20037;-67
2021/12/26 07:25:06;;;;;;;15.20;11.45;;;1.20;90.80;;;;;;4982043;28;20509;-68
2021/12/26 07:27:32;;;;;;;9.35;6.82;;;1.20;90.00;;;;;;4976825;28;20057;-67
2021/12/26 07:30:02;;;;;;;7.13;2.72;;;1.20;89.10;;;;;;4975058;28;20058;-67
2021/12/26 07:32:27;;;;;;;5.18;3.08;;;1.20;90.20;;;;;;4975141;28;20034;-67
2021/12/26 07:34:53;;;;;;;2.35;1.60;;;1.20;90.90;;;;;;4976478;28;20144;-67
2021/12/26 07:37:19;;;;;;;3.28;2.10;;;1.20;90.10;;;;;;4974267;28;20041;-67
2021/12/26 07:39:44;;;;;;;2.35;1.90;;;1.10;89.70;;;;;;4974766;28;20537;-67
2021/12/26 07:42:10;;;;;;;4.47;2.10;;;1.20;89.20;;;;;;4972555;28;20038;-67
2021/12/26 07:44:36;;;;;;;2.47;1.60;;;1.20;90.00;;;;;;4972816;28;20039;-68
2021/12/26 07:47:02;;;;;;;2.97;1.70;;;1.30;91.50;;;;;;4980041;28;20145;-68
2021/12/26 07:49:28;;;;;;;2.58;1.80;;;1.40;90.80;;;;;;4979274;28;20128;-68
2021/12/26 07:51:56;;;;;;;2.08;1.88;;;1.40;90.30;;;;;;4984748;28;20074;-68
2021/12/26 07:54:23;;;;;;;2.40;1.77;;;1.40;91.20;;;;;;4979888;28;20042;-68
2021/12/26 07:56:49;;;;;;;2.58;1.15;;;1.50;90.00;;;;;;4979370;28;20716;-68
2021/12/26 07:59:15;;;;;;;1.08;0.98;;;1.50;89.70;;;;;;4979717;28;21101;-67
2021/12/26 08:01:41;;;;;;;1.70;1.08;;;1.50;90.10;;;;;;4981915;28;20050;-67
2021/12/26 08:04:11;;;;;;;1.90;1.13;;;1.50;87.80;;;;;;4979393;28;20125;-67
2021/12/26 08:06:37;;;;;;;1.85;1.23;;;1.40;88.30;;;;;;4977999;28;20114;-67
2021/12/26 08:09:04;;;;;;;2.45;1.17;;;1.40;89.60;;;;;;4978156;28;20046;-67
2021/12/26 08:11:31;;;;;;;2.85;1.30;;;1.50;90.70;;;;;;4979495;28;20049;-67
2021/12/26 08:13:58;;;;;;;3.00;1.80;;;1.50;90.60;;;;;;4980612;28;20030;-68
2021/12/26 08:16:26;;;;;;;2.72;1.58;;;1.50;89.80;;;;;;4980283;28;20031;-68
2021/12/26 08:18:52;;;;;;;2.67;1.58;;;1.50;90.80;;;;;;4978219;28;20117;-69
2021/12/26 08:21:18;;;;;;;2.97;2.15;;;1.60;90.20;;;;;;4982065;28;20110;-69
2021/12/26 08:23:44;;;;;;;2.88;2.00;;;1.70;90.20;;;;;;4980366;28;20030;-68
2021/12/26 08:26:10;;;;;;;3.53;1.77;;;1.70;89.00;;;;;;4981884;28;20366;-68
2021/12/26 08:28:35;;;;;;;1.60;1.02;;;1.80;89.60;;;;;;4979950;28;20505;-68
2021/12/26 08:31:01;;;;;;;1.70;1.30;;;1.80;88.00;;;;;;4978675;28;20126;-69
2021/12/26 08:33:27;;;;;;;1.58;0.90;;;1.80;87.20;;;;;;4978492;28;20038;-68
2021/12/26 08:35:53;;;;;;;0.73;0.50;;;1.80;86.40;;;;;;4979569;28;20505;-68
2021/12/26 08:38:21;;;;;;;0.70;0.60;;;1.80;87.80;;;;;;4974434;28;20057;-68
2021/12/26 08:40:52;;;;;;;6.57;6.05;;;1.80;88.20;;;;;;4971287;28;20026;-67
2021/12/26 08:43:18;;;;;;;2.15;1.73;;;1.90;86.80;;;;;;4973970;28;20516;-68
2021/12/26 08:45:45;;;;;;;2.55;1.98;;;1.80;86.60;;;;;;4978349;28;20073;-68
2021/12/26 08:48:10;;;;;;;2.63;1.98;;;1.80;86.60;;;;;;4980932;28;20070;-67
2021/12/26 08:50:36;;;;;;;3.17;1.98;;;1.90;85.70;;;;;;4978465;28;20032;-67
2021/12/26 08:53:03;;;;;;;3.40;2.20;;;1.90;85.60;;;;;;4977524;28;21648;-67
2021/12/26 08:55:29;;;;;;;5.38;2.63;;;1.90;84.80;;;;;;4980865;28;20039;-67
2021/12/26 08:57:55;;;;;;;3.88;2.20;;;2.00;83.80;;;;;;4980247;28;20077;-66
2021/12/26 09:00:22;;;;;;;4.63;2.22;;;2.00;82.90;;;;;;4979173;28;20102;-67
2021/12/26 09:02:48;;;;;;;3.90;2.30;;;2.00;81.10;;;;;;4976275;28;20911;-68
2021/12/26 09:05:15;;;;;;;3.45;1.48;;;2.00;80.20;;;;;;4980236;28;20038;-67
2021/12/26 09:07:41;;;;;;;3.38;1.38;;;2.00;79.70;;;;;;4984902;28;20508;-67
2021/12/26 09:10:08;;;;;;;2.15;1.40;;;1.90;79.40;;;;;;4979314;28;20030;-66
2021/12/26 09:12:35;;;;;;;3.45;1.92;;;1.90;80.20;;;;;;4982392;28;20038;-67
2021/12/26 09:15:03;;;;;;;1.92;1.27;;;1.90;79.80;;;;;;4984821;28;20450;-67
2021/12/26 09:17:29;;;;;;;2.42;1.20;;;1.90;78.50;;;;;;4984902;28;20029;-66
2021/12/26 09:19:54;;;;;;;1.08;0.80;;;1.90;79.50;;;;;;4986215;28;20114;-67
2021/12/26 09:22:20;;;;;;;2.20;1.58;;;2.10;79.80;;;;;;4980068;28;20030;-67
2021/12/26 09:24:46;;;;;;;3.17;1.70;;;2.10;81.00;;;;;;4985626;28;20113;-67
2021/12/26 09:27:14;;;;;;;1.83;1.08;;;2.10;81.50;;;;;;4984764;28;20034;-67
2021/12/26 09:29:40;;;;;;;2.58;1.65;;;2.20;81.40;;;;;;4980097;28;20505;-67
2021/12/26 09:32:06;;;;;;;34.08;22.70;;;2.30;82.30;;;;;;4984615;28;20510;-67
2021/12/26 09:34:34;;;;;;;18.08;13.35;;;2.40;79.00;;;;;;4988882;28;20093;-67
2021/12/26 09:37:02;;;;;;;10.13;7.43;;;2.40;79.40;;;;;;4984642;28;20042;-67
2021/12/26 09:39:28;;;;;;;6.97;5.50;;;2.40;76.50;;;;;;4988891;28;20026;-67
2021/12/26 09:41:54;;;;;;;12.93;9.57;;;2.40;76.30;;;;;;4982306;28;20053;-67
2021/12/26 09:44:21;;;;;;;11.18;8.88;;;2.50;76.50;;;;;;4981164;28;20074;-67
2021/12/26 09:46:47;;;;;;;13.77;10.30;;;2.40;76.20;;;;;;4980133;28;20035;-67
2021/12/26 09:49:13;;;;;;;16.00;10.00;;;2.50;74.60;;;;;;4981534;28;20058;-68
2021/12/26 09:51:39;;;;;;;13.25;8.43;;;2.50;74.40;;;;;;4981766;28;20084;-67
2021/12/26 09:54:06;;;;;;;105.60;59.63;;;2.50;76.30;;;;;;4983701;28;20042;-67
2021/12/26 09:56:33;;;;;;;27.77;18.48;;;2.50;73.40;;;;;;4985170;28;20392;-68
2021/12/26 09:59:05;;;;;;;6.90;4.70;;;2.50;74.10;;;;;;4987904;28;20022;-67
2021/12/26 10:01:38;;;;;;;5.55;3.38;;;2.40;71.90;;;;;;4983030;28;20034;-68
2021/12/26 10:04:29;;;;;;;5.22;3.58;;;2.30;74.00;;;;;;4978985;28;20046;-68
2021/12/26 10:07:05;;;;;;;11.73;6.45;;;2.40;72.30;;;;;;4976923;28;20015;-68
2021/12/26 10:09:35;;;;;;;9.75;4.53;;;2.40;72.70;;;;;;4976591;28;20031;-67
2021/12/26 10:12:01;;;;;;;4.15;2.38;;;2.40;73.40;;;;;;4977223;28;20030;-68
2021/12/26 10:14:29;;;;;;;4.07;2.22;;;2.50;73.80;;;;;;4978614;28;20034;-68
2021/12/26 10:17:01;;;;;;;8.05;5.78;;;2.50;72.50;;;;;;4979610;28;20539;-68
2021/12/26 10:19:32;;;;;;;2.90;1.55;;;2.50;73.40;;;;;;4979145;28;20030;-68
2021/12/26 10:22:00;;;;;;;2.22;1.90;;;2.50;71.60;;;;;;4986360;28;20583;-67
2021/12/26 10:24:26;;;;;;;11.93;8.07;;;2.50;70.00;;;;;;4983482;28;20614;-68
2021/12/26 10:27:02;;;;;;;11.40;10.07;;;2.50;68.90;;;;;;4982372;28;20061;-68
2021/12/26 10:29:34;;;;;;;3.30;2.22;;;2.50;67.50;;;;;;4977791;28;20041;-68
2021/12/26 10:32:09;;;;;;;3.57;1.70;;;2.50;69.00;;;;;;4985801;28;20030;-68
2021/12/26 10:34:41;;;;;;;9.02;8.05;;;2.60;65.30;;;;;;4978902;28;20430;-68
2021/12/26 10:37:13;;;;;;;2.80;1.00;;;2.60;64.70;;;;;;4982006;28;20031;-64
2021/12/26 10:39:42;;;;;;;4.32;2.13;;;2.60;69.70;;;;;;4978032;28;20038;-68
2021/12/26 10:42:12;;;;;;;2.97;2.60;;;2.70;71.90;;;;;;4976370;28;20088;-68
2021/12/26 10:44:47;;;;;;;2.22;1.75;;;2.70;71.40;;;;;;4974344;28;20049;-66
2021/12/26 10:47:19;;;;;;;2.72;2.53;;;2.70;70.20;;;;;;4976979;28;20030;-67
2021/12/26 10:49:54;;;;;;;2.38;1.10;;;2.80;67.20;;;;;;4979434;28;20463;-67
2021/12/26 10:52:24;;;;;;;1.65;0.88;;;2.80;68.70;;;;;;4970805;28;20034;-68
2021/12/26 10:54:56;;;;;;;1.70;1.60;;;2.80;70.30;;;;;;4975517;28;20018;-67
2021/12/26 10:57:25;;;;;;;6.05;4.43;;;2.80;70.80;;;;;;4983002;28;20515;-67
2021/12/26 11:00:14;;;;;;;3.70;1.80;;;2.80;69.70;;;;;;4981445;28;20035;-66
2021/12/26 11:03:04;;;;;;;8.85;6.40;;;2.80;69.10;;;;;;4979663;28;20384;-67
2021/12/26 11:05:35;;;;;;;11.35;6.88;;;2.90;69.20;;;;;;4973269;28;20029;-67
2021/12/26 11:08:07;;;;;;;17.05;10.07;;;3.00;70.00;;;;;;4977709;28;20034;-67
2021/12/26 11:10:42;;;;;;;10.20;6.10;;;3.00;68.30;;;;;;4980326;28;20162;-67
2021/12/26 11:13:26;;;;;;;11.02;6.25;;;3.00;68.40;;;;;;4978828;28;20037;-67
2021/12/26 11:16:13;;;;;;;4.82;3.97;;;3.00;67.60;;;;;;4981751;28;20037;-67
2021/12/26 11:18:42;;;;;;;1.77;1.23;;;3.10;65.50;;;;;;4979167;28;20384;-67
2021/12/26 11:21:13;;;;;;;1.65;1.20;;;3.10;67.90;;;;;;4983254;28;20081;-68
2021/12/26 11:23:40;;;;;;;1.08;0.73;;;3.10;67.20;;;;;;4983429;28;20635;-68
2021/12/26 11:26:18;;;;;;;1.75;0.70;;;3.10;66.00;;;;;;4981553;28;20026;-69
2021/12/26 11:28:49;;;;;;;1.20;0.88;;;3.20;67.00;;;;;;4978388;28;20034;-68
2021/12/26 11:31:28;;;;;;;2.25;0.90;;;3.20;67.40;;;;;;4974108;28;20137;-68
2021/12/26 11:34:04;;;;;;;1.25;1.02;;;3.20;67.20;;;;;;4979860;28;20022;-68
2021/12/26 11:36:32;;;;;;;2.30;1.70;;;3.10;68.20;;;;;;4980476;28;20516;-67
2021/12/26 11:39:03;;;;;;;2.15;0.85;;;3.20;68.00;;;;;;4979401;28;20022;-68
2021/12/26 11:41:32;;;;;;;3.05;1.05;;;3.30;67.30;;;;;;4982446;28;20050;-68
2021/12/26 11:44:21;;;;;;;1.27;0.88;;;3.30;69.60;;;;;;4976923;28;20750;-67
2021/12/26 11:47:00;;;;;;;1.55;0.80;;;3.40;71.00;;;;;;4978182;28;20030;-67
2021/12/26 11:50:01;;;;;;;1.67;1.00;;;3.40;70.70;;;;;;4973778;28;20046;-67
2021/12/26 11:52:50;;;;;;;0.88;0.80;;;3.50;71.50;;;;;;4982588;28;20105;-68
2021/12/26 11:55:50;;;;;;;0.57;0.50;;;3.50;69.80;;;;;;4973795;28;20388;-68
2021/12/26 11:58:35;;;;;;;1.20;0.88;;;3.50;69.40;;;;;;4971678;28;20050;-68
2021/12/26 12:01:02;;;;;;;1.80;1.00;;;3.40;69.40;;;;;;4980180;28;20023;-68
2021/12/26 12:03:31;;;;;;;1.77;0.85;;;3.40;69.50;;;;;;4975450;28;20492;-68
2021/12/26 12:05:58;;;;;;;3.05;1.00;;;3.50;70.50;;;;;;4979374;28;20045;-68
2021/12/26 12:08:24;;;;;;;0.52;0.52;;;3.50;71.30;;;;;;4977144;28;20117;-68
2021/12/26 12:10:52;;;;;;;2.22;0.90;;;3.50;71.70;;;;;;4979007;28;20432;-67
2021/12/26 12:13:27;;;;;;;2.67;1.27;;;3.60;71.20;;;;;;4978699;28;20081;-68
2021/12/26 12:16:00;;;;;;;1.27;0.63;;;3.60;71.00;;;;;;4983391;28;20023;-68
2021/12/26 12:18:28;;;;;;;2.63;1.15;;;3.60;71.10;;;;;;4978508;28;20035;-68
2021/12/26 12:21:14;;;;;;;1.42;1.00;;;3.60;73.10;;;;;;4975605;28;20038;-68
2021/12/26 12:24:09;;;;;;;1.35;0.80;;;3.80;71.80;;;;;;4977211;28;20037;-68
2021/12/26 12:26:52;;;;;;;2.58;1.00;;;3.70;72.50;;;;;;4983814;28;20034;-68
2021/12/26 12:29:24;;;;;;;1.45;0.90;;;3.80;72.00;;;;;;4976916;28;20429;-68
2021/12/26 12:32:09;;;;;;;1.67;1.02;;;3.70;72.20;;;;;;4973864;28;20058;-68
2021/12/26 12:34:45;;;;;;;2.28;1.15;;;3.80;73.00;;;;;;4984917;28;20753;-68
2021/12/26 12:37:24;;;;;;;1.33;0.98;;;3.80;72.10;;;;;;4983137;28;20037;-68
2021/12/26 12:40:25;;;;;;;1.20;0.80;;;3.80;73.50;;;;;;4981979;28;20076;-69
2021/12/26 12:43:11;;;;;;;1.55;1.00;;;3.80;73.10;;;;;;4971817;28;20050;-68
2021/12/26 12:45:52;;;;;;;1.38;0.70;;;3.80;73.00;;;;;;4974606;28;20058;-68
2021/12/26 12:48:24;;;;;;;2.00;1.10;;;3.80;73.80;;;;;;4977176;28;20160;-68
2021/12/26 12:51:20;;;;;;;1.40;1.08;;;3.80;74.00;;;;;;4982631;28;20018;-68
2021/12/26 12:53:56;;;;;;;2.05;1.20;;;3.80;74.10;;;;;;4981553;28;20038;-68
2021/12/26 12:56:33;;;;;;;1.33;1.17;;;3.90;75.20;;;;;;4981457;28;20729;-68
2021/12/26 12:59:19;;;;;;;3.03;0.98;;;4.00;75.30;;;;;;4984689;28;20022;-68
2021/12/26 13:01:47;;;;;;;1.10;1.00;;;4.00;75.10;;;;;;4981887;28;20693;-68
2021/12/26 13:04:15;;;;;;;2.30;1.65;;;4.10;74.60;;;;;;4979789;28;20042;-68
2021/12/26 13:06:59;;;;;;;1.48;0.82;;;4.10;75.60;;;;;;4981529;28;20122;-68
2021/12/26 13:09:27;;;;;;;2.45;1.73;;;4.20;75.10;;;;;;4981047;28;20066;-68